Quincy, IL

6:19 PM CST on March 06, 2015 (GMT -0600)
Adams County Emergency Management | Change Station
CLOSE
Current Station
Personal Weather Station
Location: Quincy, IL
Elevation: 725 ft
Nearby Weather Stations

Elev 725 ft 39.93 °N, 91.33 °W | Updated 9 seconds ago

Clear
Clear
43.0 °F
Feels Like 43 °F
N
0.0
Wind Variable Wind from SSW
Gusts 1.0 mph

Today
High -- | Low -- °F
--% Chance of Precip.
Yesterday
High -- | Low -- °F
Precip. -- in
6:31 AM 6:02 PM
Full, 99% visible
Pressure 30.24 in
Visibility 10.0 miles
Clouds Clear
Windchill 43 °F
Dew Point 30 °F
Humidity 60%
Rainfall in
Snow Depth Not available.
UV 0 out of 12
Pollen 2.10 out of 12
Air Quality Not available.
Flu Activity Not available.
METAR KUIN 062354Z AUTO 21009KT 10SM CLR 05/M03 A3021 RMK AO2 SLP238 T00501028 10072 20017 58003

More Conditions Fewer Conditions

Pressure 30.24 in
Visibility 10.0 miles
Clouds Clear
Windchill 43 °F
Dew Point 30 °F
Humidity 60%
Rainfall in
Snow Depth Not available.
UV 0 out of 12
Pollen 2.10 out of 12
Air Quality Not available.
Flu Activity Not available.
METAR KUIN 062354Z AUTO 21009KT 10SM CLR 05/M03 A3021 RMK AO2 SLP238 T00501028 10072 20017 58003

More Conditions Fewer Conditions

10-Day Weather Forecast

Almanac

Astronomy

Mar. 06, 2015 Rise Set
Actual Time
Civil Twilight
Nautical Twilight
Astronomical Twilight
Moon
Length of Visible Light
Length of Day
Tomorrow will be .
, % of the Moon is Illuminated

Today's Extremes

State Highs State Lows

Community

WunderPhotos

Upload Photos

1,803,466 photos uploaded!

WunderBlogs® & News

Nearby

Air Quality

  Air Quality AQ Index Pollutant
Not available.

Snow Depth

Station Depth Elevation

Earthquake Activity

City Distance Mag. Time & Date
Minimum magnitude displayed is 2.5.

Coastal Water Temperatures

Place Temperature

Nearby Weather Stations